Time;durP1;ratioP1;P1;durP2;ratioP2;P2;SDS_P1;SDS_P2;PMS_P1;PMS_P2;Temp;Humidity;BMP_temperature;BMP_pressure;BME280_temperature;BME280_humidity;BME280_pressure;Samples;Min_cycle;Max_cycle;Signal;HPM_P1;HPM_P2
2023/12/16 00:02:20;;;;;;;8.38;2.33;;;6.80;99.90;;;;;;4948133;29;20039;-81
2023/12/16 00:04:46;;;;;;;12.13;2.50;;;6.80;99.90;;;;;;4947797;29;20505;-81
2023/12/16 00:07:13;;;;;;;9.25;2.50;;;7.30;99.90;;;;;;4954455;29;20040;-82
2023/12/16 00:09:40;;;;;;;10.45;2.47;;;6.80;99.90;;;;;;4951218;29;20489;-82
2023/12/16 00:12:06;;;;;;;12.98;2.75;;;6.90;99.90;;;;;;4936845;29;20096;-81
2023/12/16 00:14:36;;;;;;;14.65;2.40;;;6.90;99.90;;;;;;4954267;29;20075;-82
2023/12/16 00:17:03;;;;;;;9.93;2.30;;;6.90;99.90;;;;;;4954427;29;20040;-81
2023/12/16 00:19:30;;;;;;;10.40;2.30;;;7.00;99.90;;;;;;4954353;29;20044;-82
2023/12/16 00:21:57;;;;;;;11.70;2.33;;;6.90;99.90;;;;;;4951897;29;20044;-82
2023/12/16 00:24:24;;;;;;;7.80;1.98;;;6.90;99.90;;;;;;4954150;29;20066;-81
2023/12/16 00:26:50;;;;;;;11.27;2.70;;;7.00;99.90;;;;;;4954278;29;20040;-81
2023/12/16 00:29:17;;;;;;;10.10;3.30;;;7.20;99.90;;;;;;4944351;29;20410;-82
2023/12/16 00:31:44;;;;;;;9.88;2.13;;;7.10;99.90;;;;;;4949392;29;20074;-82
2023/12/16 00:34:10;;;;;;;9.20;2.47;;;6.90;99.90;;;;;;4944998;29;20381;-82
2023/12/16 00:36:37;;;;;;;7.60;1.98;;;6.90;99.90;;;;;;4953273;29;20043;-81
2023/12/16 00:39:04;;;;;;;10.80;2.50;;;7.50;99.90;;;;;;4943282;29;20076;-81
2023/12/16 00:41:31;;;;;;;8.57;2.13;;;6.90;99.90;;;;;;4952666;29;20496;-82
2023/12/16 00:43:58;;;;;;;9.65;2.35;;;6.80;99.90;;;;;;4958027;29;20183;-82
2023/12/16 00:46:24;;;;;;;14.02;2.10;;;6.80;99.90;;;;;;4940463;29;20040;-82
2023/12/16 00:48:51;;;;;;;11.82;1.95;;;6.80;99.90;;;;;;4969342;29;20515;-82
2023/12/16 00:51:20;;;;;;;8.35;2.00;;;6.80;99.90;;;;;;4964938;29;20044;-82
2023/12/16 00:53:46;;;;;;;7.32;1.92;;;7.60;99.90;;;;;;4952888;29;20051;-81
2023/12/16 00:56:13;;;;;;;9.63;1.95;;;6.70;99.90;;;;;;4969131;29;20484;-81
2023/12/16 00:58:40;;;;;;;10.80;2.05;;;6.70;99.90;;;;;;4953478;29;20035;-82
2023/12/16 01:01:06;;;;;;;9.65;1.92;;;6.70;99.90;;;;;;4942605;29;20441;-81
2023/12/16 01:03:34;;;;;;;6.95;1.95;;;6.60;99.90;;;;;;4953120;29;20118;-81
2023/12/16 01:06:01;;;;;;;10.10;2.20;;;6.60;99.90;;;;;;4950850;29;20059;-82
2023/12/16 01:08:28;;;;;;;12.07;2.10;;;6.60;99.90;;;;;;4941397;29;20053;-82
2023/12/16 01:10:55;;;;;;;11.02;2.20;;;6.80;99.90;;;;;;4953448;29;20139;-82
2023/12/16 01:13:22;;;;;;;12.50;2.40;;;6.60;99.90;;;;;;4969271;29;20130;-82
2023/12/16 01:15:48;;;;;;;11.13;1.90;;;6.60;99.90;;;;;;4953416;29;20067;-82
2023/12/16 01:18:16;;;;;;;11.07;2.20;;;6.60;99.90;;;;;;4953285;29;20043;-82
2023/12/16 01:20:42;;;;;;;9.05;1.77;;;6.50;99.90;;;;;;4937861;29;20033;-81
2023/12/16 01:23:09;;;;;;;11.57;2.83;;;6.60;99.90;;;;;;4946488;29;20036;-82
2023/12/16 01:25:36;;;;;;;10.23;2.20;;;6.40;99.90;;;;;;4953231;29;20063;-82
2023/12/16 01:28:02;;;;;;;10.48;2.00;;;6.40;99.90;;;;;;4968694;29;20594;-82
2023/12/16 01:30:29;;;;;;;7.50;2.05;;;6.40;99.90;;;;;;4953033;29;20065;-81
2023/12/16 01:32:56;;;;;;;13.85;1.98;;;6.40;99.90;;;;;;4953260;29;20063;-81
2023/12/16 01:35:22;;;;;;;7.88;1.90;;;6.70;99.90;;;;;;4952881;29;20040;-81
2023/12/16 01:37:49;;;;;;;9.48;1.77;;;6.90;99.90;;;;;;4940325;29;20507;-81
2023/12/16 01:40:15;;;;;;;9.02;2.35;;;7.00;99.90;;;;;;4961301;29;20110;-81
2023/12/16 01:42:45;;;;;;;9.10;1.70;;;6.40;99.90;;;;;;4944649;29;20450;-81
2023/12/16 01:45:11;;;;;;;7.45;1.80;;;6.40;99.90;;;;;;4954754;29;20458;-81
2023/12/16 01:47:39;;;;;;;9.80;1.98;;;6.40;99.90;;;;;;4968713;29;20043;-82
2023/12/16 01:50:06;;;;;;;7.40;1.55;;;6.80;99.90;;;;;;4955281;29;20048;-81
2023/12/16 01:52:33;;;;;;;5.13;1.50;;;6.30;99.90;;;;;;4952670;29;20036;-81
2023/12/16 01:55:00;;;;;;;6.45;1.73;;;6.30;99.90;;;;;;4953080;29;20035;-81
2023/12/16 01:57:27;;;;;;;6.90;1.55;;;6.30;99.90;;;;;;4953003;29;20098;-81
2023/12/16 01:59:54;;;;;;;8.27;1.83;;;6.60;99.90;;;;;;4952685;29;20065;-82
2023/12/16 02:02:21;;;;;;;8.60;2.10;;;6.30;99.90;;;;;;4952798;29;20497;-81
2023/12/16 02:04:48;;;;;;;5.68;1.50;;;6.30;99.90;;;;;;4939762;29;20134;-81
2023/12/16 02:07:14;;;;;;;7.80;1.60;;;6.70;99.90;;;;;;4959152;29;20075;-81
2023/12/16 02:09:41;;;;;;;10.93;2.03;;;6.30;99.90;;;;;;4951056;29;20102;-81
2023/12/16 02:12:09;;;;;;;8.88;1.83;;;6.90;99.90;;;;;;4935258;29;20123;-81
2023/12/16 02:14:36;;;;;;;6.00;1.65;;;6.30;99.90;;;;;;4952455;29;20419;-80
2023/12/16 02:17:02;;;;;;;11.18;2.13;;;6.60;99.90;;;;;;4952643;29;20043;-81
2023/12/16 02:19:29;;;;;;;5.30;1.70;;;6.20;99.90;;;;;;4951177;29;20118;-82
2023/12/16 02:21:56;;;;;;;9.85;1.65;;;6.40;99.90;;;;;;4952256;29;20043;-81
2023/12/16 02:24:23;;;;;;;10.32;1.73;;;6.10;99.90;;;;;;4952462;29;20044;-82
2023/12/16 02:26:50;;;;;;;7.22;1.92;;;6.90;99.90;;;;;;4939782;29;20071;-82
2023/12/16 02:29:16;;;;;;;10.63;2.03;;;6.40;99.90;;;;;;4952650;29;20101;-81
2023/12/16 02:31:43;;;;;;;6.53;1.50;;;6.60;99.90;;;;;;4948670;29;20463;-82
2023/12/16 02:34:10;;;;;;;6.07;1.60;;;6.00;99.90;;;;;;4949138;29;20040;-81
2023/12/16 02:36:37;;;;;;;8.55;1.85;;;6.40;99.90;;;;;;4950041;29;20050;-81
2023/12/16 02:39:04;;;;;;;14.10;2.65;;;6.70;99.90;;;;;;4968363;29;20040;-82
2023/12/16 02:41:30;;;;;;;9.35;1.75;;;6.30;99.90;;;;;;4936801;29;20382;-82
2023/12/16 02:43:57;;;;;;;8.10;2.03;;;6.00;99.90;;;;;;4944873;29;20044;-81
2023/12/16 02:46:24;;;;;;;11.43;2.28;;;6.00;99.90;;;;;;4936104;29;22553;-82
2023/12/16 02:48:51;;;;;;;7.25;2.03;;;5.90;99.90;;;;;;4941584;29;20068;-82
2023/12/16 02:51:21;;;;;;;7.85;1.70;;;5.90;99.90;;;;;;4935767;29;20682;-82
2023/12/16 02:53:48;;;;;;;8.80;1.88;;;5.80;99.90;;;;;;4957040;29;20040;-83
2023/12/16 02:56:14;;;;;;;5.47;2.03;;;5.70;99.90;;;;;;4952216;29;20107;-82
2023/12/16 02:58:41;;;;;;;11.68;2.60;;;5.70;99.90;;;;;;4942433;29;20062;-83
2023/12/16 03:01:08;;;;;;;9.38;1.98;;;6.40;99.90;;;;;;4962547;29;20044;-83
2023/12/16 03:03:37;;;;;;;12.27;1.98;;;5.70;99.90;;;;;;4955833;29;20122;-82
2023/12/16 03:06:07;;;;;;;6.38;1.90;;;6.70;99.90;;;;;;4925104;29;20536;-82
2023/12/16 03:08:37;;;;;;;8.50;1.98;;;5.70;99.90;;;;;;4918298;29;20394;-83
2023/12/16 03:11:04;;;;;;;9.00;2.22;;;5.70;99.90;;;;;;4923233;29;20091;-83
2023/12/16 03:13:31;;;;;;;6.15;2.00;;;5.70;99.90;;;;;;4944062;29;20548;-83
2023/12/16 03:15:58;;;;;;;12.75;2.22;;;5.70;99.90;;;;;;4937375;29;20124;-83
2023/12/16 03:18:24;;;;;;;11.02;2.25;;;5.60;99.90;;;;;;4917903;29;20088;-83
2023/12/16 03:20:51;;;;;;;8.35;1.95;;;5.60;99.90;;;;;;4920765;29;20466;-82
2023/12/16 03:23:18;;;;;;;9.38;1.80;;;5.60;99.90;;;;;;4934330;29;20121;-82
2023/12/16 03:25:44;;;;;;;10.25;2.38;;;6.20;99.90;;;;;;4936191;29;20040;-82
2023/12/16 03:28:11;;;;;;;9.32;2.10;;;5.80;99.90;;;;;;4929523;29;20100;-82
2023/12/16 03:30:40;;;;;;;14.98;2.20;;;5.60;99.90;;;;;;4921383;29;20047;-82
2023/12/16 03:33:07;;;;;;;10.98;2.33;;;5.60;99.90;;;;;;4908154;29;20044;-83
2023/12/16 03:35:34;;;;;;;10.30;2.05;;;5.70;99.90;;;;;;4910531;29;20131;-82
2023/12/16 03:38:01;;;;;;;12.27;1.95;;;5.60;99.90;;;;;;4917703;29;20133;-83
2023/12/16 03:40:29;;;;;;;10.30;2.22;;;5.60;99.90;;;;;;4923786;29;20107;-83
2023/12/16 03:42:56;;;;;;;4.65;1.95;;;5.50;99.90;;;;;;4919932;29;20044;-82
2023/12/16 03:45:23;;;;;;;10.25;1.95;;;5.50;99.90;;;;;;4911439;29;20110;-82
2023/12/16 03:47:50;;;;;;;8.65;1.95;;;5.70;99.90;;;;;;4904551;29;20048;-82
2023/12/16 03:50:17;;;;;;;17.13;2.10;;;5.50;99.90;;;;;;4918067;29;20524;-82
2023/12/16 03:52:43;;;;;;;9.20;2.10;;;5.40;99.90;;;;;;4919994;29;20107;-82
2023/12/16 03:55:10;;;;;;;9.70;1.95;;;5.40;99.90;;;;;;4916616;29;20053;-82
2023/12/16 03:57:37;;;;;;;9.65;2.30;;;6.00;99.90;;;;;;4928905;29;20036;-82
2023/12/16 04:00:04;;;;;;;7.28;2.00;;;5.80;99.90;;;;;;4924812;29;20036;-82
2023/12/16 04:02:31;;;;;;;9.00;1.95;;;5.30;99.90;;;;;;4923516;29;20111;-83
2023/12/16 04:04:57;;;;;;;13.60;2.42;;;5.90;99.90;;;;;;4954825;29;20138;-83
2023/12/16 04:07:24;;;;;;;6.93;2.05;;;5.30;99.90;;;;;;4943533;29;20055;-83
2023/12/16 04:09:50;;;;;;;9.35;2.30;;;5.30;99.90;;;;;;4984199;28;20501;-83
2023/12/16 04:12:17;;;;;;;13.02;2.00;;;5.40;99.90;;;;;;4956841;29;20054;-83
2023/12/16 04:14:44;;;;;;;10.05;2.30;;;5.90;99.90;;;;;;4945430;29;20048;-83
2023/12/16 04:17:10;;;;;;;7.65;2.35;;;5.20;99.90;;;;;;4960685;29;20084;-82
2023/12/16 04:19:37;;;;;;;10.35;2.38;;;5.20;99.90;;;;;;4935499;29;20127;-82
2023/12/16 04:22:04;;;;;;;11.27;2.80;;;5.30;99.90;;;;;;4951597;29;20042;-82
2023/12/16 04:24:31;;;;;;;8.15;2.10;;;5.90;99.90;;;;;;4969920;29;20032;-82
2023/12/16 04:26:57;;;;;;;7.72;2.47;;;5.80;99.90;;;;;;4954206;29;20404;-82
2023/12/16 04:29:24;;;;;;;12.75;2.33;;;5.60;99.90;;;;;;4963222;29;20046;-83
2023/12/16 04:31:51;;;;;;;12.93;2.30;;;5.20;99.90;;;;;;4965497;29;20044;-82
2023/12/16 04:34:17;;;;;;;12.50;2.03;;;5.30;99.90;;;;;;4962207;29;20047;-82
2023/12/16 04:36:44;;;;;;;16.30;2.72;;;5.60;99.90;;;;;;4954058;29;20528;-82
2023/12/16 04:39:10;;;;;;;11.88;2.50;;;5.20;99.90;;;;;;4942630;29;20084;-83
2023/12/16 04:41:37;;;;;;;10.15;2.38;;;5.60;99.90;;;;;;4966178;29;20055;-82
2023/12/16 04:44:04;;;;;;;14.80;2.30;;;5.30;99.90;;;;;;4973780;29;20051;-83
2023/12/16 04:46:31;;;;;;;9.35;2.03;;;5.20;99.90;;;;;;4963315;29;20048;-82
2023/12/16 04:48:57;;;;;;;12.13;2.50;;;5.90;99.90;;;;;;4962191;29;20044;-82
2023/12/16 04:51:24;;;;;;;6.82;2.30;;;5.20;99.90;;;;;;4969298;29;20067;-82
2023/12/16 04:53:51;;;;;;;8.27;2.30;;;5.20;99.90;;;;;;4953983;29;20039;-82
2023/12/16 04:56:17;;;;;;;12.98;2.60;;;5.70;99.90;;;;;;4969326;29;20130;-82
2023/12/16 04:58:44;;;;;;;15.05;2.67;;;5.20;99.90;;;;;;4953793;29;20044;-82
2023/12/16 05:01:11;;;;;;;14.55;2.53;;;5.30;99.90;;;;;;4957530;29;20049;-82
2023/12/16 05:03:40;;;;;;;12.55;2.65;;;5.80;99.90;;;;;;4953693;29;20068;-82
2023/12/16 05:06:08;;;;;;;10.40;2.42;;;5.30;99.90;;;;;;4940941;29;20048;-83
2023/12/16 05:08:35;;;;;;;12.75;2.28;;;5.30;99.90;;;;;;4929071;29;20048;-82
2023/12/16 05:11:02;;;;;;;7.78;2.30;;;5.30;99.90;;;;;;4946820;29;20055;-83
2023/12/16 05:13:29;;;;;;;11.55;2.35;;;5.40;99.90;;;;;;4925876;29;20549;-83
2023/12/16 05:15:55;;;;;;;13.02;2.47;;;5.40;99.90;;;;;;4936662;29;20043;-82
2023/12/16 05:18:23;;;;;;;11.38;2.92;;;5.40;99.90;;;;;;4938151;29;20043;-83
2023/12/16 05:20:50;;;;;;;11.02;2.70;;;5.80;99.90;;;;;;4937600;29;20031;-82
2023/12/16 05:23:16;;;;;;;14.77;2.80;;;5.40;99.90;;;;;;4931122;29;20036;-83
2023/12/16 05:25:43;;;;;;;14.73;3.60;;;5.40;99.90;;;;;;4949793;29;20043;-82
2023/12/16 05:28:10;;;;;;;15.32;3.13;;;5.40;99.90;;;;;;4953310;29;20098;-82
2023/12/16 05:30:37;;;;;;;15.52;3.15;;;6.00;99.90;;;;;;4953494;29;20035;-82
2023/12/16 05:33:03;;;;;;;8.90;2.08;;;5.40;99.90;;;;;;4924971;29;20529;-82
2023/12/16 05:35:30;;;;;;;11.43;2.28;;;5.40;99.90;;;;;;4946467;29;20043;-82
2023/12/16 05:37:57;;;;;;;11.90;2.90;;;5.40;99.90;;;;;;4946812;29;20047;-82
2023/12/16 05:40:24;;;;;;;10.73;2.60;;;5.50;99.90;;;;;;4937296;29;20047;-83
2023/12/16 05:42:50;;;;;;;14.07;2.42;;;5.40;99.90;;;;;;4953168;29;20056;-83
2023/12/16 05:45:17;;;;;;;13.00;2.40;;;6.20;99.90;;;;;;4940273;29;20108;-82
2023/12/16 05:47:43;;;;;;;15.88;2.55;;;5.50;99.90;;;;;;4943088;29;20110;-82
2023/12/16 05:50:10;;;;;;;16.15;2.88;;;5.50;99.90;;;;;;4968602;29;20122;-82
2023/12/16 05:52:37;;;;;;;13.38;3.08;;;5.60;99.90;;;;;;4963168;29;20485;-83
2023/12/16 05:55:05;;;;;;;10.95;2.20;;;5.50;99.90;;;;;;4924686;29;20413;-83
2023/12/16 05:57:31;;;;;;;16.90;3.45;;;5.60;99.90;;;;;;4953002;29;20136;-82
2023/12/16 05:59:58;;;;;;;12.55;2.58;;;5.80;99.90;;;;;;4937253;29;20127;-82
2023/12/16 06:02:25;;;;;;;9.40;2.78;;;5.70;99.90;;;;;;4943694;29;20493;-82
2023/12/16 06:04:52;;;;;;;16.42;2.58;;;5.80;99.90;;;;;;4941662;29;20104;-82
2023/12/16 06:07:19;;;;;;;26.45;3.13;;;6.60;99.90;;;;;;4944226;29;20043;-83
2023/12/16 06:09:46;;;;;;;10.93;2.60;;;5.80;99.90;;;;;;4942217;29;20568;-82
2023/12/16 06:12:13;;;;;;;14.52;2.90;;;5.90;99.90;;;;;;4953076;29;20130;-83
2023/12/16 06:14:39;;;;;;;12.82;2.70;;;5.90;99.90;;;;;;4952320;29;20039;-83
2023/12/16 06:17:07;;;;;;;11.45;2.40;;;6.50;99.90;;;;;;4940166;29;20353;-82
2023/12/16 06:19:33;;;;;;;13.20;2.88;;;6.00;99.90;;;;;;4943556;29;20040;-82
2023/12/16 06:22:00;;;;;;;12.75;2.78;;;6.60;99.90;;;;;;4933451;29;20114;-83
2023/12/16 06:24:27;;;;;;;13.90;2.60;;;6.00;99.90;;;;;;4941853;29;20488;-83
2023/12/16 06:26:54;;;;;;;14.35;2.60;;;6.00;99.90;;;;;;4940138;29;20377;-82
2023/12/16 06:29:21;;;;;;;15.60;2.70;;;6.10;99.90;;;;;;4952857;29;20092;-82
2023/12/16 06:31:47;;;;;;;12.93;3.20;;;6.10;99.90;;;;;;4952168;29;20067;-82
2023/12/16 06:34:16;;;;;;;14.57;2.90;;;6.60;99.90;;;;;;4954235;29;20127;-82
2023/12/16 06:36:43;;;;;;;15.57;3.40;;;6.20;99.90;;;;;;4949381;29;20044;-82
2023/12/16 06:39:09;;;;;;;16.98;3.63;;;6.80;99.90;;;;;;4945160;29;20032;-82
2023/12/16 06:41:36;;;;;;;14.63;3.25;;;6.50;99.90;;;;;;4949561;29;20107;-83
2023/12/16 06:44:03;;;;;;;19.17;4.15;;;6.30;99.90;;;;;;4950091;29;20040;-82
2023/12/16 06:46:29;;;;;;;22.88;3.80;;;6.30;99.90;;;;;;4955929;29;20051;-82
2023/12/16 06:48:57;;;;;;;23.45;3.70;;;6.60;99.90;;;;;;4955785;29;20122;-83
2023/12/16 06:51:23;;;;;;;21.05;3.88;;;6.40;99.90;;;;;;4956186;29;20047;-82
2023/12/16 06:53:50;;;;;;;15.43;3.80;;;7.20;99.90;;;;;;4950057;29;20071;-82
2023/12/16 06:56:18;;;;;;;21.98;3.00;;;6.40;99.90;;;;;;4949961;29;20545;-82
2023/12/16 06:58:47;;;;;;;19.40;3.50;;;6.70;99.90;;;;;;4951916;29;20039;-82
2023/12/16 07:01:14;;;;;;;12.82;3.72;;;6.50;99.90;;;;;;4943639;29;20043;-82
2023/12/16 07:03:41;;;;;;;16.88;3.13;;;6.50;99.90;;;;;;4936549;29;20043;-83
2023/12/16 07:06:10;;;;;;;17.15;4.05;;;7.30;99.90;;;;;;4935963;29;20588;-82
2023/12/16 07:08:37;;;;;;;18.80;4.32;;;7.20;99.90;;;;;;4948102;29;20099;-82
2023/12/16 07:11:03;;;;;;;26.73;4.47;;;6.50;99.90;;;;;;4942505;29;20043;-82
2023/12/16 07:13:30;;;;;;;24.02;4.70;;;7.30;99.90;;;;;;4921730;29;20067;-83
2023/12/16 07:15:57;;;;;;;15.35;3.55;;;6.50;99.90;;;;;;4946526;29;20047;-82
2023/12/16 07:18:24;;;;;;;23.38;4.38;;;6.90;99.90;;;;;;4936472;29;20040;-82
2023/12/16 07:20:50;;;;;;;26.80;3.92;;;6.50;99.90;;;;;;4936537;29;20092;-82
2023/12/16 07:23:17;;;;;;;20.15;5.10;;;6.60;99.90;;;;;;4931407;29;20175;-82
2023/12/16 07:25:44;;;;;;;18.73;4.40;;;6.50;99.90;;;;;;4941867;29;20130;-82
2023/12/16 07:28:10;;;;;;;17.50;3.67;;;6.60;99.90;;;;;;4936440;29;20042;-82
2023/12/16 07:30:37;;;;;;;18.02;4.10;;;6.60;99.90;;;;;;4935212;29;20210;-82
2023/12/16 07:33:04;;;;;;;20.80;4.70;;;6.60;99.90;;;;;;4953221;29;20055;-82
2023/12/16 07:35:30;;;;;;;23.65;5.50;;;6.60;99.90;;;;;;4936311;29;20046;-82
2023/12/16 07:37:57;;;;;;;20.08;4.55;;;6.60;99.90;;;;;;4931801;29;20040;-82
2023/12/16 07:40:23;;;;;;;27.17;5.65;;;6.60;99.90;;;;;;4952706;29;20127;-82
2023/12/16 07:42:50;;;;;;;27.83;5.15;;;6.60;99.90;;;;;;4940752;29;20035;-82
2023/12/16 07:45:17;;;;;;;23.35;6.20;;;6.60;99.90;;;;;;4940830;29;20044;-81
2023/12/16 07:47:43;;;;;;;25.77;6.00;;;6.60;99.90;;;;;;4941368;29;20086;-82
2023/12/16 07:50:11;;;;;;;24.58;4.90;;;7.00;99.90;;;;;;4939630;29;20111;-83
2023/12/16 07:52:37;;;;;;;14.93;5.15;;;6.70;99.90;;;;;;4942272;29;20054;-83
2023/12/16 07:55:04;;;;;;;25.08;6.30;;;6.60;99.90;;;;;;4945041;29;20494;-82
2023/12/16 07:57:31;;;;;;;25.52;5.70;;;6.70;99.90;;;;;;4928636;29;20042;-83
2023/12/16 07:59:58;;;;;;;28.17;5.38;;;7.10;99.90;;;;;;4950437;29;20032;-82
2023/12/16 08:02:25;;;;;;;22.35;4.63;;;6.70;99.90;;;;;;4938023;29;20032;-83
2023/12/16 08:04:53;;;;;;;24.52;5.38;;;6.70;99.90;;;;;;4944827;29;20144;-83
2023/12/16 08:07:20;;;;;;;28.77;5.00;;;6.80;99.90;;;;;;4953488;29;20047;-82
2023/12/16 08:09:47;;;;;;;22.77;5.13;;;6.80;99.90;;;;;;4960997;29;20048;-82
2023/12/16 08:12:14;;;;;;;28.63;5.05;;;6.80;99.90;;;;;;4947071;29;20065;-82
2023/12/16 08:14:41;;;;;;;30.73;6.05;;;6.80;99.90;;;;;;4946669;29;20115;-82
2023/12/16 08:17:07;;;;;;;30.83;5.75;;;6.80;99.90;;;;;;4953907;29;20500;-82
2023/12/16 08:19:34;;;;;;;30.58;6.53;;;6.90;99.90;;;;;;4949793;29;20244;-82
2023/12/16 08:22:01;;;;;;;21.45;5.45;;;7.10;99.90;;;;;;4949411;29;20059;-82
2023/12/16 08:24:32;;;;;;;29.20;5.90;;;7.30;99.90;;;;;;4947052;29;20054;-82
2023/12/16 08:26:58;;;;;;;22.30;5.40;;;6.90;99.90;;;;;;4963452;29;20102;-82
2023/12/16 08:29:25;;;;;;;29.40;6.53;;;6.90;99.90;;;;;;4949894;29;20126;-82
2023/12/16 08:31:52;;;;;;;27.52;6.20;;;7.40;99.90;;;;;;4950729;29;20059;-82
2023/12/16 08:34:19;;;;;;;26.58;6.25;;;7.00;99.90;;;;;;4952744;29;20039;-82
2023/12/16 08:36:48;;;;;;;22.15;4.97;;;6.90;99.90;;;;;;4958687;29;20056;-82
2023/12/16 08:39:15;;;;;;;24.85;5.95;;;7.20;99.90;;;;;;4945748;29;20047;-82
2023/12/16 08:41:42;;;;;;;27.45;6.85;;;7.20;99.90;;;;;;4943427;29;20044;-82
2023/12/16 08:44:09;;;;;;;32.10;5.93;;;7.10;99.90;;;;;;4948932;29;20036;-82
2023/12/16 08:46:40;;;;;;;22.08;6.20;;;7.70;99.90;;;;;;4951012;29;20038;-82
2023/12/16 08:49:07;;;;;;;28.90;6.40;;;7.00;99.90;;;;;;4968437;29;20071;-82
2023/12/16 08:51:35;;;;;;;27.30;5.50;;;7.00;99.90;;;;;;4944290;29;20125;-82
2023/12/16 08:54:02;;;;;;;24.55;6.20;;;7.50;99.90;;;;;;4950529;29;20054;-82
2023/12/16 08:56:28;;;;;;;22.20;5.57;;;7.00;99.90;;;;;;4951132;29;20127;-82
2023/12/16 08:58:55;;;;;;;27.33;7.15;;;7.00;99.90;;;;;;4943955;29;20044;-82
2023/12/16 09:01:22;;;;;;;24.63;6.70;;;7.00;99.90;;;;;;4950225;29;20366;-82
2023/12/16 09:03:49;;;;;;;21.75;5.78;;;7.00;99.90;;;;;;4948274;29;20032;-82
2023/12/16 09:06:15;;;;;;;28.65;6.72;;;7.30;99.90;;;;;;4918964;29;20048;-82
2023/12/16 09:08:42;;;;;;;30.95;5.90;;;7.30;99.90;;;;;;4929143;29;20151;-82
2023/12/16 09:11:09;;;;;;;31.77;6.32;;;7.70;99.90;;;;;;4930754;29;20144;-81
2023/12/16 09:13:36;;;;;;;28.15;6.28;;;7.70;99.90;;;;;;4933241;29;20044;-81
2023/12/16 09:16:04;;;;;;;31.73;6.28;;;7.00;99.90;;;;;;4937578;29;20036;-82
2023/12/16 09:18:30;;;;;;;22.55;5.80;;;7.00;99.90;;;;;;4944763;29;20044;-81
2023/12/16 09:20:57;;;;;;;28.08;6.90;;;7.00;99.90;;;;;;4931141;29;20047;-82
2023/12/16 09:23:24;;;;;;;36.58;6.82;;;7.80;99.90;;;;;;4918821;29;20047;-82
2023/12/16 09:25:50;;;;;;;40.25;7.75;;;7.00;99.90;;;;;;4934494;29;20036;-82
2023/12/16 09:28:17;;;;;;;29.08;6.60;;;7.40;99.90;;;;;;4928572;29;20130;-82
2023/12/16 09:30:43;;;;;;;38.63;7.05;;;7.10;99.90;;;;;;4937725;29;20051;-82
2023/12/16 09:33:10;;;;;;;32.15;7.57;;;7.10;99.90;;;;;;4938610;29;20062;-82
2023/12/16 09:35:37;;;;;;;31.30;7.45;;;7.30;99.90;;;;;;4935291;29;20051;-82
2023/12/16 09:38:03;;;;;;;29.17;7.32;;;7.10;99.90;;;;;;4918713;29;20481;-82
2023/12/16 09:40:30;;;;;;;26.20;6.82;;;7.10;99.90;;;;;;4935838;29;20041;-82
2023/12/16 09:43:05;;;;;;;28.40;6.93;;;7.20;99.90;;;;;;4937417;29;20401;-82
2023/12/16 09:45:32;;;;;;;27.00;7.47;;;7.20;99.90;;;;;;4937312;29;20051;-82
2023/12/16 09:47:59;;;;;;;44.80;8.35;;;7.10;99.90;;;;;;4937294;29;20516;-82
2023/12/16 09:50:28;;;;;;;35.85;9.13;;;7.20;99.90;;;;;;4937369;29;20043;-82
2023/12/16 09:52:55;;;;;;;26.92;7.78;;;7.90;99.90;;;;;;4926357;29;20050;-82
2023/12/16 09:55:21;;;;;;;35.15;7.80;;;7.20;99.90;;;;;;4918346;29;20052;-81
2023/12/16 09:57:49;;;;;;;28.73;8.02;;;8.10;99.90;;;;;;4923987;29;20580;-82
2023/12/16 10:00:17;;;;;;;31.13;7.53;;;7.20;99.90;;;;;;4937670;29;20044;-82
2023/12/16 10:02:47;;;;;;;34.05;7.05;;;7.20;99.90;;;;;;4959840;29;20047;-82
2023/12/16 10:05:16;;;;;;;33.92;7.65;;;8.00;99.90;;;;;;4946331;29;20055;-82
2023/12/16 10:07:42;;;;;;;27.17;7.45;;;7.20;99.90;;;;;;4949789;29;20048;-83
2023/12/16 10:10:12;;;;;;;34.55;7.47;;;7.80;99.90;;;;;;4949202;29;20511;-83
2023/12/16 10:12:39;;;;;;;28.30;7.03;;;7.20;99.90;;;;;;4951364;29;20051;-83
2023/12/16 10:15:06;;;;;;;27.70;7.53;;;7.20;99.90;;;;;;4945849;29;20040;-82
2023/12/16 10:17:32;;;;;;;29.70;7.13;;;7.30;99.90;;;;;;4950712;29;20032;-82
2023/12/16 10:19:59;;;;;;;37.38;8.48;;;7.30;99.90;;;;;;4950270;29;20040;-83
2023/12/16 10:22:26;;;;;;;26.77;8.00;;;7.30;99.90;;;;;;4939699;29;20050;-82
2023/12/16 10:24:53;;;;;;;25.75;8.10;;;7.70;99.90;;;;;;4947698;29;20036;-82
2023/12/16 10:27:22;;;;;;;35.20;7.57;;;8.00;99.90;;;;;;4956810;29;20075;-82
2023/12/16 10:29:52;;;;;;;27.15;7.28;;;7.30;99.90;;;;;;4956095;29;20408;-82
2023/12/16 10:32:19;;;;;;;29.65;8.10;;;7.80;99.90;;;;;;4966508;29;20031;-82
2023/12/16 10:34:45;;;;;;;35.33;8.50;;;7.70;99.90;;;;;;4958659;29;20535;-82
2023/12/16 10:37:12;;;;;;;28.90;8.35;;;7.30;99.90;;;;;;4966424;29;20056;-82
2023/12/16 10:39:39;;;;;;;39.70;8.25;;;7.40;99.90;;;;;;4955154;29;20044;-81
2023/12/16 10:42:05;;;;;;;36.85;7.75;;;7.30;99.90;;;;;;4952155;29;20036;-83
2023/12/16 10:44:32;;;;;;;27.13;7.80;;;7.30;99.90;;;;;;4948557;29;20058;-82
2023/12/16 10:46:59;;;;;;;34.22;8.32;;;8.30;99.90;;;;;;4936741;29;20039;-83
2023/12/16 10:49:31;;;;;;;46.97;8.95;;;8.30;99.90;;;;;;4948342;29;20382;-83
2023/12/16 10:52:09;;;;;;;23.85;7.78;;;7.40;99.90;;;;;;4952965;29;20050;-83
2023/12/16 10:54:46;;;;;;;40.90;8.07;;;7.40;99.90;;;;;;4951709;29;20095;-83
2023/12/16 10:57:22;;;;;;;32.35;8.23;;;7.80;99.90;;;;;;4964848;29;20469;-83
2023/12/16 11:00:00;;;;;;;32.33;7.25;;;7.50;99.90;;;;;;4952830;29;20128;-83
2023/12/16 11:02:30;;;;;;;30.50;8.30;;;7.50;99.90;;;;;;4955129;29;20039;-83
2023/12/16 11:05:14;;;;;;;28.75;8.18;;;7.40;99.90;;;;;;4958515;29;20139;-83
2023/12/16 11:07:41;;;;;;;33.67;8.75;;;7.50;99.90;;;;;;4942391;29;20040;-82
2023/12/16 11:10:08;;;;;;;34.22;9.00;;;7.50;99.90;;;;;;4955057;29;20034;-83
2023/12/16 11:12:36;;;;;;;31.17;8.77;;;7.50;99.90;;;;;;4954712;29;20043;-84
2023/12/16 11:15:05;;;;;;;33.63;8.65;;;8.60;99.90;;;;;;4952817;29;20050;-84
2023/12/16 11:17:40;;;;;;;28.55;8.52;;;7.50;99.90;;;;;;4955086;29;20036;-85
2023/12/16 11:20:16;;;;;;;25.08;8.05;;;8.20;99.90;;;;;;4943076;29;20405;-84
2023/12/16 11:22:50;;;;;;;35.22;8.30;;;7.50;99.90;;;;;;4951635;29;20433;-84
2023/12/16 11:25:21;;;;;;;30.73;8.63;;;8.40;99.90;;;;;;4945776;29;20040;-84
2023/12/16 11:27:51;;;;;;;38.17;9.20;;;7.60;99.90;;;;;;4939614;29;20622;-84
2023/12/16 11:30:21;;;;;;;26.25;8.60;;;7.60;99.90;;;;;;4955217;29;20514;-84
2023/12/16 11:32:55;;;;;;;21.95;8.15;;;8.00;99.90;;;;;;4952570;29;20051;-84
2023/12/16 11:35:42;;;;;;;29.38;8.43;;;7.90;99.90;;;;;;4953676;29;20055;-84
2023/12/16 11:38:09;;;;;;;27.90;8.60;;;7.60;99.90;;;;;;4951349;29;20039;-84
2023/12/16 11:40:51;;;;;;;34.08;9.70;;;7.60;99.90;;;;;;4946087;29;20052;-84
2023/12/16 11:43:18;;;;;;;25.08;8.55;;;7.60;99.90;;;;;;4944541;29;20127;-84
2023/12/16 11:45:47;;;;;;;26.15;8.98;;;7.60;99.90;;;;;;4946072;29;20953;-84
2023/12/16 11:48:17;;;;;;;25.63;8.88;;;7.60;99.90;;;;;;4943850;29;20047;-84
2023/12/16 11:50:46;;;;;;;26.60;9.13;;;7.60;99.90;;;;;;4949729;29;20040;-85
2023/12/16 11:53:18;;;;;;;24.80;8.30;;;7.70;99.90;;;;;;4948568;29;20111;-85
2023/12/16 11:55:45;;;;;;;29.52;8.27;;;8.00;99.90;;;;;;4948839;29;20099;-85
2023/12/16 11:58:12;;;;;;;25.35;8.27;;;7.70;99.90;;;;;;4954500;29;20047;-84
2023/12/16 12:00:40;;;;;;;25.20;8.90;;;7.70;99.90;;;;;;4954640;29;20122;-85
2023/12/16 12:03:07;;;;;;;21.10;8.23;;;8.00;99.90;;;;;;4963725;29;20047;-84
2023/12/16 12:05:34;;;;;;;22.13;8.38;;;7.70;99.90;;;;;;4942346;29;20416;-84
2023/12/16 12:08:01;;;;;;;19.80;8.20;;;7.70;99.90;;;;;;4967309;29;20050;-83
2023/12/16 12:10:28;;;;;;;28.17;8.50;;;7.70;99.90;;;;;;4953601;29;20405;-84
2023/12/16 12:12:56;;;;;;;26.20;8.98;;;8.40;99.90;;;;;;4949720;29;20496;-84
2023/12/16 12:15:22;;;;;;;24.92;8.57;;;8.10;99.90;;;;;;4952671;29;20043;-83
2023/12/16 12:17:49;;;;;;;21.67;8.45;;;7.90;99.90;;;;;;4954285;29;20050;-84
2023/12/16 12:20:17;;;;;;;22.60;9.10;;;7.80;99.90;;;;;;4954367;29;20050;-84
2023/12/16 12:22:44;;;;;;;20.67;8.20;;;8.50;99.90;;;;;;4954213;29;20032;-84
2023/12/16 12:25:17;;;;;;;24.98;8.63;;;8.10;99.90;;;;;;4954430;29;20520;-84
2023/12/16 12:27:43;;;;;;;20.27;8.15;;;7.70;99.90;;;;;;4943272;29;20488;-84
2023/12/16 12:30:21;;;;;;;27.70;7.90;;;7.70;99.90;;;;;;4954598;29;20079;-85
2023/12/16 12:32:48;;;;;;;25.33;8.77;;;7.70;99.90;;;;;;4953339;29;20489;-84
2023/12/16 12:35:14;;;;;;;25.90;8.43;;;8.70;99.90;;;;;;4954342;29;20051;-84
2023/12/16 12:37:44;;;;;;;17.95;8.02;;;7.70;99.90;;;;;;4954116;29;20497;-84
2023/12/16 12:40:13;;;;;;;26.60;8.25;;;7.70;99.90;;;;;;4954194;29;20040;-84
2023/12/16 12:42:48;;;;;;;23.05;8.13;;;8.20;99.90;;;;;;4949758;29;20405;-84
2023/12/16 12:45:31;;;;;;;22.60;8.20;;;7.80;99.90;;;;;;4943944;29;20191;-84
2023/12/16 12:48:12;;;;;;;22.85;8.35;;;7.80;99.90;;;;;;4958536;29;20442;-84
2023/12/16 12:50:39;;;;;;;18.33;7.25;;;7.80;99.90;;;;;;4952736;29;20082;-84